createdAt,value
2019-04-22T01:29:02.000Z,1.21
2019-04-22T01:33:50.000Z,1.25
2019-04-22T01:38:38.000Z,1.21
2019-04-22T01:43:26.000Z,1.10
2019-04-22T01:48:13.000Z,0.97
2019-04-22T01:53:01.000Z,0.89
2019-04-22T01:57:49.000Z,0.85
2019-04-22T02:02:37.000Z,0.77
2019-04-22T02:07:25.000Z,0.69
2019-04-22T02:12:13.000Z,0.62
2019-04-22T02:17:01.000Z,0.52
2019-04-22T02:21:49.000Z,0.38
2019-04-22T02:21:49.000Z,0.38
2019-04-22T02:26:37.000Z,0.29
2019-04-22T02:31:25.000Z,0.19
2019-04-22T02:31:25.000Z,0.19
2019-04-22T02:41:01.000Z,0.05
2019-04-22T02:45:48.000Z,0.02
2019-04-22T02:50:36.000Z,-0.06
2019-04-22T02:55:24.000Z,-0.11
2019-04-22T03:04:59.000Z,-0.27
2019-04-22T03:09:47.000Z,-0.36
2019-04-22T03:14:35.000Z,-0.43
2019-04-22T03:14:35.000Z,-0.43
2019-04-22T03:19:23.000Z,-0.52
2019-04-22T03:24:11.000Z,-0.56
2019-04-22T03:28:59.000Z,-0.62
2019-04-22T03:33:47.000Z,-0.74
2019-04-22T03:33:47.000Z,-0.74
2019-04-22T03:38:35.000Z,-0.89
2019-04-22T03:38:35.000Z,-0.89
2019-04-22T03:43:22.000Z,-0.97
2019-04-22T03:48:10.000Z,-1.01
2019-04-22T03:52:58.000Z,-1.04
2019-04-22T03:57:46.000Z,-1.07
2019-04-22T04:02:33.000Z,-1.13
2019-04-22T04:07:21.000Z,-1.22
2019-04-22T04:12:09.000Z,-1.25
2019-04-22T04:16:57.000Z,-1.22
2019-04-22T04:21:45.000Z,-1.18
2019-04-22T04:26:32.000Z,-1.12
2019-04-22T04:26:32.000Z,-1.12
2019-04-22T04:31:20.000Z,-1.09
2019-04-22T04:36:08.000Z,-1.04
2019-04-22T04:40:56.000Z,-0.78
2019-04-22T04:45:45.000Z,-0.41
2019-04-22T04:50:33.000Z,0.03
2019-04-22T04:55:21.000Z,0.49
2019-04-22T05:00:09.000Z,0.99
2019-04-22T05:00:09.000Z,0.99
2019-04-22T05:04:58.000Z,1.50
2019-04-22T05:09:46.000Z,2.09
2019-04-22T05:14:34.000Z,2.71
2019-04-22T05:19:23.000Z,3.34
2019-04-22T05:24:12.000Z,4.06
2019-04-22T05:29:01.000Z,4.78
2019-04-22T05:33:49.000Z,5.53
2019-04-22T05:38:38.000Z,6.31
2019-04-22T05:43:27.000Z,7.00
2019-04-22T05:48:16.000Z,7.82
2019-04-22T05:53:05.000Z,8.81
2019-04-22T05:57:53.000Z,9.80
2019-04-22T06:02:42.000Z,10.80
2019-04-22T06:07:31.000Z,11.72
2019-04-22T06:12:20.000Z,12.76
2019-04-22T06:17:09.000Z,13.50
2019-04-22T06:21:58.000Z,14.37
2019-04-22T06:26:47.000Z,15.24
2019-04-22T06:31:35.000Z,15.92
2019-04-22T06:36:24.000Z,16.69
2019-04-22T06:41:13.000Z,17.52
2019-04-22T06:46:02.000Z,18.43
2019-04-22T06:50:51.000Z,19.07
2019-04-22T06:55:39.000Z,19.79
2019-04-22T07:00:28.000Z,20.68
2019-04-22T07:05:17.000Z,21.30
2019-04-22T07:10:05.000Z,21.49
2019-04-22T07:14:53.000Z,21.47
2019-04-22T07:19:41.000Z,21.23
2019-04-22T07:24:29.000Z,20.96
2019-04-22T07:29:18.000Z,21.07
2019-04-22T07:34:06.000Z,21.61
2019-04-22T07:38:55.000Z,22.07
2019-04-22T07:43:43.000Z,22.10
2019-04-22T07:48:32.000Z,22.47
2019-04-22T07:53:21.000Z,22.39
2019-04-22T07:58:09.000Z,22.25
2019-04-22T08:02:57.000Z,22.37
2019-04-22T08:07:46.000Z,22.63
2019-04-22T08:12:35.000Z,23.06
2019-04-22T08:17:23.000Z,23.58
2019-04-22T08:22:12.000Z,23.99
2019-04-22T08:27:00.000Z,24.22
2019-04-22T08:31:49.000Z,23.94
2019-04-22T08:36:36.000Z,23.43
2019-04-22T08:41:25.000Z,23.47
2019-04-22T08:46:13.000Z,23.42
2019-04-22T08:51:02.000Z,23.68
2019-04-22T08:55:51.000Z,24.11
2019-04-22T09:00:39.000Z,24.36
2019-04-22T09:05:28.000Z,24.88
2019-04-22T09:10:17.000Z,25.20
2019-04-22T09:15:05.000Z,24.90
2019-04-22T09:19:54.000Z,25.12
2019-04-22T09:24:42.000Z,25.02
2019-04-22T09:29:31.000Z,25.60
2019-04-22T09:34:19.000Z,25.64
2019-04-22T09:39:07.000Z,25.53
2019-04-22T09:43:56.000Z,25.98
2019-04-22T09:48:45.000Z,26.20
2019-04-22T09:53:33.000Z,26.23
2019-04-22T09:58:22.000Z,25.98
2019-04-22T10:03:10.000Z,25.98
2019-04-22T10:07:59.000Z,25.91
2019-04-22T10:12:47.000Z,25.72
2019-04-22T10:17:36.000Z,26.02
2019-04-22T10:22:24.000Z,26.18
2019-04-22T10:27:13.000Z,26.42
2019-04-22T10:36:51.000Z,27.02
2019-04-22T10:41:39.000Z,27.25
2019-04-22T10:46:28.000Z,27.53
2019-04-22T10:51:17.000Z,27.68
2019-04-22T10:56:06.000Z,28.74
2019-04-22T11:00:54.000Z,28.48
2019-04-22T11:05:41.000Z,27.72
2019-04-22T11:10:30.000Z,27.61
2019-04-22T11:15:18.000Z,27.55
2019-04-22T11:20:07.000Z,27.92
2019-04-22T11:24:55.000Z,27.92
2019-04-22T11:29:44.000Z,28.15
2019-04-22T11:34:33.000Z,28.87
2019-04-22T11:39:22.000Z,29.44
2019-04-22T11:44:10.000Z,29.32
2019-04-22T11:48:59.000Z,29.39
2019-04-22T11:53:47.000Z,29.16
2019-04-22T11:58:35.000Z,29.07
2019-04-22T12:03:24.000Z,29.08
2019-04-22T12:08:12.000Z,29.52
2019-04-22T12:13:00.000Z,29.35
2019-04-22T12:17:49.000Z,29.22
2019-04-22T12:22:38.000Z,29.07
2019-04-22T12:27:26.000Z,29.45
2019-04-22T12:32:15.000Z,29.31
2019-04-22T12:37:03.000Z,29.17
2019-04-22T12:41:51.000Z,28.46
2019-04-22T12:46:39.000Z,28.00
2019-04-22T12:51:27.000Z,28.31
2019-04-22T12:56:15.000Z,28.55
2019-04-22T13:01:04.000Z,28.92
2019-04-22T13:05:53.000Z,29.55
2019-04-22T13:10:41.000Z,29.74
2019-04-22T13:15:29.000Z,29.08
2019-04-22T13:20:17.000Z,29.02
2019-04-22T13:25:05.000Z,28.59
2019-04-22T13:29:54.000Z,29.29
2019-04-22T13:34:43.000Z,30.01
2019-04-22T13:39:31.000Z,29.88
2019-04-22T13:44:18.000Z,28.78
2019-04-22T13:49:07.000Z,27.95
2019-04-22T13:53:54.000Z,27.06
2019-04-22T13:53:54.000Z,27.06
2019-04-22T13:58:43.000Z,27.51
2019-04-22T14:03:31.000Z,27.40
2019-04-22T14:08:19.000Z,27.08
2019-04-22T14:13:07.000Z,26.94
2019-04-22T14:17:55.000Z,26.68
2019-04-22T14:22:43.000Z,26.36
2019-04-22T14:27:34.000Z,26.45
2019-04-22T14:32:19.000Z,26.97
2019-04-22T14:37:07.000Z,27.12
2019-04-22T14:41:55.000Z,27.08
2019-04-22T14:46:43.000Z,26.88
2019-04-22T14:51:32.000Z,26.63
2019-04-22T14:56:20.000Z,26.59
2019-04-22T15:01:08.000Z,26.30
2019-04-22T15:05:56.000Z,26.07
2019-04-22T15:10:44.000Z,25.87
2019-04-22T15:15:32.000Z,25.57
2019-04-22T15:20:21.000Z,25.56
2019-04-22T15:25:09.000Z,25.41
2019-04-22T15:29:57.000Z,24.69
2019-04-22T15:39:33.000Z,23.85
2019-04-22T15:44:20.000Z,22.65
2019-04-22T15:49:08.000Z,21.41
2019-04-22T15:53:55.000Z,20.58
2019-04-22T15:58:43.000Z,19.99
2019-04-22T16:03:31.000Z,19.67
2019-04-22T16:08:20.000Z,19.41
2019-04-22T16:13:08.000Z,19.21
2019-04-22T16:17:56.000Z,19.00
2019-04-22T16:22:44.000Z,18.78
2019-04-22T16:27:32.000Z,18.62
2019-04-22T16:32:20.000Z,18.50
2019-04-22T16:37:08.000Z,18.38
2019-04-22T16:41:56.000Z,18.24
2019-04-22T16:46:44.000Z,18.11
2019-04-22T16:51:32.000Z,17.91
2019-04-22T16:56:20.000Z,17.67
2019-04-22T17:01:08.000Z,17.43
2019-04-22T17:05:56.000Z,17.19
2019-04-22T17:10:44.000Z,16.98
2019-04-22T17:15:32.000Z,16.78
2019-04-22T17:20:20.000Z,16.58
2019-04-22T17:25:08.000Z,16.36
2019-04-22T17:29:56.000Z,16.13
2019-04-22T17:34:44.000Z,15.92
2019-04-22T17:39:32.000Z,15.70
2019-04-22T17:44:20.000Z,15.49
2019-04-22T17:49:08.000Z,15.31
2019-04-22T17:53:56.000Z,15.12
2019-04-22T17:58:44.000Z,14.94
2019-04-22T18:03:32.000Z,14.76
2019-04-22T18:08:20.000Z,14.56
2019-04-22T18:08:20.000Z,14.56
2019-04-22T18:13:08.000Z,14.38
2019-04-22T18:17:56.000Z,14.18
2019-04-22T18:22:44.000Z,13.98
2019-04-22T18:27:32.000Z,13.81
2019-04-22T18:32:20.000Z,13.67
2019-04-22T18:37:08.000Z,13.51
2019-04-22T18:41:56.000Z,13.36
2019-04-22T18:46:45.000Z,13.23
2019-04-22T18:51:33.000Z,13.11
2019-04-22T18:56:21.000Z,12.97
2019-04-22T19:01:09.000Z,12.84
2019-04-22T19:05:57.000Z,12.72
2019-04-22T19:10:45.000Z,12.58
2019-04-22T19:15:33.000Z,12.47
2019-04-22T19:20:21.000Z,12.33
2019-04-22T19:25:10.000Z,12.19
2019-04-22T19:29:58.000Z,12.07
2019-04-22T19:34:46.000Z,11.98
2019-04-22T19:39:34.000Z,11.83
2019-04-22T19:44:22.000Z,11.69
2019-04-22T19:49:17.000Z,11.57
2019-04-22T19:54:00.000Z,11.47
2019-04-22T19:58:44.000Z,11.44
2019-04-22T20:03:33.000Z,11.39
2019-04-22T20:08:21.000Z,11.34
2019-04-22T20:13:09.000Z,11.33
2019-04-22T20:17:57.000Z,11.30
2019-04-22T20:22:45.000Z,11.29
2019-04-22T20:32:21.000Z,11.30
2019-04-22T20:37:09.000Z,11.31
2019-04-22T20:41:56.000Z,11.34
2019-04-22T20:46:45.000Z,11.33
2019-04-22T20:51:33.000Z,11.32
2019-04-22T20:56:21.000Z,11.27
2019-04-22T21:01:10.000Z,11.20
2019-04-22T21:05:58.000Z,11.22
2019-04-22T21:10:47.000Z,11.22
2019-04-22T21:15:35.000Z,11.23
2019-04-22T21:20:24.000Z,11.23
2019-04-22T21:25:12.000Z,11.22
2019-04-22T21:30:00.000Z,11.23
2019-04-22T21:34:48.000Z,11.22
2019-04-22T21:39:36.000Z,11.18
2019-04-22T21:44:24.000Z,11.17
2019-04-22T21:49:12.000Z,11.18
2019-04-22T21:54:01.000Z,11.14
2019-04-22T21:58:49.000Z,11.11
2019-04-22T22:03:37.000Z,11.09
2019-04-22T22:08:25.000Z,11.04
2019-04-22T22:13:13.000Z,11.06
2019-04-22T22:18:02.000Z,11.08
2019-04-22T22:22:50.000Z,11.06
2019-04-22T22:27:38.000Z,11.05
2019-04-22T22:32:26.000Z,10.96
2019-04-22T22:37:14.000Z,10.95
2019-04-22T22:42:02.000Z,10.93
2019-04-22T22:46:50.000Z,10.92
2019-04-22T22:51:38.000Z,10.91
2019-04-22T22:51:38.000Z,10.91
2019-04-22T22:56:27.000Z,10.88
2019-04-22T23:01:15.000Z,10.85
2019-04-22T23:06:03.000Z,10.87
2019-04-22T23:10:51.000Z,10.83
2019-04-22T23:15:39.000Z,10.80
2019-04-22T23:20:27.000Z,10.75
2019-04-22T23:25:16.000Z,10.68
2019-04-22T23:30:04.000Z,10.60
2019-04-22T23:34:52.000Z,10.59
2019-04-22T23:39:40.000Z,10.56
2019-04-22T23:44:28.000Z,10.52
2019-04-22T23:49:16.000Z,10.46
2019-04-22T23:54:04.000Z,10.42
2019-04-22T23:58:53.000Z,10.38
